Detall de PIREP

Printer-friendly versionPDF version

[2014/04/20 08:11:00]
Flight IATA:CT2212
Pilot Number:044
Company ICAO:CAT
Aircraft Type:F100/A
PAX:101
Aircraft Registration:PFJ
Departing Airport: LFMP
Destination Airport: LFST
Alternate Airport:LFSB
Online: VATSIM
Route:FJR UL127 PADKO/N300F280 UN854 ETREK UM976 PIBAT UM129 EPL
Flight Level:F270
No Slew and time accel
No pause
Crash detect
Detect pilot in Cockpit between each 30 and 45 minutes
08:11 Zero fuel Weight: 81825 Lbs, Fuel Weight: 17222 Lbs
08:11 VATSIM:LFMP 200800Z 10010KT 9999 BKN050 13/09 Q1003 NOSIG
08:11 VATSIM:LFST 200800Z AUTO 18004KT 140V210 8000 BKN037 11/07 Q1006
08:12 VOICE CATALONIAN
08:12 Parking Brakes off
08:19 Take-off
08:19 Take off Weight: 98562 Lbs
08:19 Wind: 102º @ 010 Knots Heading: 145º
08:19 POS N42º 44´ 17´´ E002º 52´ 30´´
08:19 Flaps:1 at 191 Knots
08:19 Gear Up: 195 Knots
08:19 Flaps:0 at 202 Knots
08:34 Wind:027º@032 Knots Heading: 034º Ground Speed: 319 Knots Altitude 26578 ft
08:34 TOC
08:34 Fuel Weight: 14909 Lb
08:49 Wind:114º@011 Knots Heading: 346º Ground Speed: 410 Knots Altitude 27795 ft
09:04 Wind:139º@018 Knots Heading: 352º Ground Speed: 431 Knots Altitude 27729 ft
09:13 TOD
09:13 Fuel Weight: 11822 Lb
09:19 Wind:158º@015 Knots Heading: 034º Ground Speed: 364 Knots Altitude 16774 ft
09:34 Wind:163º@008 Knots Heading: 063º Ground Speed: 242 Knots Altitude 6463 ft
09:46 Flaps:1 at 202 Knots
09:47 Flaps:2 at 180 Knots
09:48 Flaps:3 at 161 Knots
09:49 Wind:173º@004 Knots Heading: 227º Ground Speed: 154 Knots Altitude 3054 ft
09:50 Flaps:4 at 141 Knots
09:50 Gear Down: 137 Knots
09:52 TouchDown:Rate -287 ft/min Speed: 116 Knots
09:52 VATSIM:LFST 200930Z AUTO 17004KT 080V220 9999 FEW038 14/07 Q1006
09:52 Land
09:52 Wind:150º@004 Knots
09:52 Heading: 227º
09:52 FlightDuration: 01:33
09:52 Landing Weight: 91682 Lbs
09:52 POS N48º 32´ 16´´ E007º 37´ 39´´
09:58 Parking brakes on
09:58 Block to Block Duration: 01:46
09:58 Final Fuel: 9528 Lbls
09:58 Spent Fuel: 7694 Lbls
09:58 Flight Length: 503 NM
09:58 TOD Land Length: 174 NM

Exportar CSV

Powered by Drupal - Modified by Danger4k